sensor_id;sensor_type;location;lat;lon;timestamp;temperature;humidity
9915;DHT22;4996;48.746;9.174;2022-07-29T00:00:28;20.70;99.90
9915;DHT22;4996;48.746;9.174;2022-07-29T00:02:54;20.70;99.90
9915;DHT22;4996;48.746;9.174;2022-07-29T00:05:19;20.70;99.90
9915;DHT22;4996;48.746;9.174;2022-07-29T00:07:45;20.80;99.90
9915;DHT22;4996;48.746;9.174;2022-07-29T00:10:10;20.80;99.90
9915;DHT22;4996;48.746;9.174;2022-07-29T00:12:36;20.70;99.90
9915;DHT22;4996;48.746;9.174;2022-07-29T00:15:02;20.70;99.90
9915;DHT22;4996;48.746;9.174;2022-07-29T00:17:28;20.80;99.90
9915;DHT22;4996;48.746;9.174;2022-07-29T00:19:53;20.80;99.90
9915;DHT22;4996;48.746;9.174;2022-07-29T00:22:19;20.80;99.90
9915;DHT22;4996;48.746;9.174;2022-07-29T00:24:47;20.80;99.90
9915;DHT22;4996;48.746;9.174;2022-07-29T00:27:14;20.70;99.90
9915;DHT22;4996;48.746;9.174;2022-07-29T00:29:39;20.70;99.90
9915;DHT22;4996;48.746;9.174;2022-07-29T00:32:05;20.70;99.90
9915;DHT22;4996;48.746;9.174;2022-07-29T00:34:30;20.70;99.90
9915;DHT22;4996;48.746;9.174;2022-07-29T00:37:15;20.70;99.90
9915;DHT22;4996;48.746;9.174;2022-07-29T00:39:40;20.70;99.90
9915;DHT22;4996;48.746;9.174;2022-07-29T00:42:06;20.70;99.90
9915;DHT22;4996;48.746;9.174;2022-07-29T00:44:37;20.70;99.90
9915;DHT22;4996;48.746;9.174;2022-07-29T00:47:02;20.50;99.90
9915;DHT22;4996;48.746;9.174;2022-07-29T00:49:28;20.50;99.90
9915;DHT22;4996;48.746;9.174;2022-07-29T00:51:54;20.40;99.90
9915;DHT22;4996;48.746;9.174;2022-07-29T00:54:19;20.30;99.90
9915;DHT22;4996;48.746;9.174;2022-07-29T00:56:45;20.30;99.90
9915;DHT22;4996;48.746;9.174;2022-07-29T00:59:10;20.30;99.90
9915;DHT22;4996;48.746;9.174;2022-07-29T01:01:36;20.30;99.90
9915;DHT22;4996;48.746;9.174;2022-07-29T01:04:01;20.20;99.90
9915;DHT22;4996;48.746;9.174;2022-07-29T01:06:27;20.20;99.90
9915;DHT22;4996;48.746;9.174;2022-07-29T01:08:53;20.30;99.90
9915;DHT22;4996;48.746;9.174;2022-07-29T01:11:19;20.30;99.90
9915;DHT22;4996;48.746;9.174;2022-07-29T01:13:46;20.30;99.90
9915;DHT22;4996;48.746;9.174;2022-07-29T01:16:22;20.30;99.90
9915;DHT22;4996;48.746;9.174;2022-07-29T01:18:53;20.10;99.90
9915;DHT22;4996;48.746;9.174;2022-07-29T01:27:07;20.20;99.90
9915;DHT22;4996;48.746;9.174;2022-07-29T01:29:41;20.30;99.90
9915;DHT22;4996;48.746;9.174;2022-07-29T01:32:12;20.20;99.90
9915;DHT22;4996;48.746;9.174;2022-07-29T01:40:22;20.10;99.90
9915;DHT22;4996;48.746;9.174;2022-07-29T01:42:52;20.10;99.90
9915;DHT22;4996;48.746;9.174;2022-07-29T01:45:38;20.20;99.90
9915;DHT22;4996;48.746;9.174;2022-07-29T01:48:15;20.20;99.90
9915;DHT22;4996;48.746;9.174;2022-07-29T01:51:04;20.20;99.90
9915;DHT22;4996;48.746;9.174;2022-07-29T01:53:58;20.10;99.90
9915;DHT22;4996;48.746;9.174;2022-07-29T01:56:27;20.10;99.90
9915;DHT22;4996;48.746;9.174;2022-07-29T01:58:57;20.10;99.90
9915;DHT22;4996;48.746;9.174;2022-07-29T02:01:24;20.00;99.90
9915;DHT22;4996;48.746;9.174;2022-07-29T02:03:50;20.10;99.90
9915;DHT22;4996;48.746;9.174;2022-07-29T02:06:21;20.10;99.90
9915;DHT22;4996;48.746;9.174;2022-07-29T02:08:48;20.10;99.90
9915;DHT22;4996;48.746;9.174;2022-07-29T02:11:14;20.00;99.90
9915;DHT22;4996;48.746;9.174;2022-07-29T02:13:41;20.00;99.90
9915;DHT22;4996;48.746;9.174;2022-07-29T02:16:08;19.90;99.90
9915;DHT22;4996;48.746;9.174;2022-07-29T02:18:36;19.90;99.90
9915;DHT22;4996;48.746;9.174;2022-07-29T02:21:03;19.90;99.90
9915;DHT22;4996;48.746;9.174;2022-07-29T02:23:31;20.00;99.90
9915;DHT22;4996;48.746;9.174;2022-07-29T02:25:59;20.00;99.90
9915;DHT22;4996;48.746;9.174;2022-07-29T02:28:27;20.00;99.90
9915;DHT22;4996;48.746;9.174;2022-07-29T02:30:56;19.90;99.90
9915;DHT22;4996;48.746;9.174;2022-07-29T02:33:23;19.80;99.90
9915;DHT22;4996;48.746;9.174;2022-07-29T02:35:51;19.80;99.90
9915;DHT22;4996;48.746;9.174;2022-07-29T02:38:18;19.90;99.90
9915;DHT22;4996;48.746;9.174;2022-07-29T02:41:05;19.90;99.90
9915;DHT22;4996;48.746;9.174;2022-07-29T02:43:33;19.90;99.90
9915;DHT22;4996;48.746;9.174;2022-07-29T02:46:00;19.80;99.90
9915;DHT22;4996;48.746;9.174;2022-07-29T02:48:34;19.80;99.90
9915;DHT22;4996;48.746;9.174;2022-07-29T02:51:07;19.80;99.90
9915;DHT22;4996;48.746;9.174;2022-07-29T02:53:34;19.90;99.90
9915;DHT22;4996;48.746;9.174;2022-07-29T02:56:08;19.90;99.90
9915;DHT22;4996;48.746;9.174;2022-07-29T02:58:41;19.90;99.90
9915;DHT22;4996;48.746;9.174;2022-07-29T03:01:12;19.90;99.90
9915;DHT22;4996;48.746;9.174;2022-07-29T03:03:39;19.80;99.90
9915;DHT22;4996;48.746;9.174;2022-07-29T03:06:07;19.80;99.90
9915;DHT22;4996;48.746;9.174;2022-07-29T03:08:34;19.80;99.90
9915;DHT22;4996;48.746;9.174;2022-07-29T03:11:01;19.80;99.90
9915;DHT22;4996;48.746;9.174;2022-07-29T03:13:27;19.80;99.90
9915;DHT22;4996;48.746;9.174;2022-07-29T03:15:55;19.80;99.90
9915;DHT22;4996;48.746;9.174;2022-07-29T03:18:21;19.80;99.90
9915;DHT22;4996;48.746;9.174;2022-07-29T03:20:47;19.80;99.90
9915;DHT22;4996;48.746;9.174;2022-07-29T03:23:19;19.80;99.90
9915;DHT22;4996;48.746;9.174;2022-07-29T03:25:45;19.80;99.90
9915;DHT22;4996;48.746;9.174;2022-07-29T03:28:11;19.90;99.90
9915;DHT22;4996;48.746;9.174;2022-07-29T03:30:36;19.90;99.90
9915;DHT22;4996;48.746;9.174;2022-07-29T03:33:02;19.90;99.90
9915;DHT22;4996;48.746;9.174;2022-07-29T03:35:27;19.80;99.90
9915;DHT22;4996;48.746;9.174;2022-07-29T03:37:53;19.80;99.90
9915;DHT22;4996;48.746;9.174;2022-07-29T03:40:27;19.70;99.90
9915;DHT22;4996;48.746;9.174;2022-07-29T03:42:54;19.80;99.90
9915;DHT22;4996;48.746;9.174;2022-07-29T03:45:21;19.70;99.90
9915;DHT22;4996;48.746;9.174;2022-07-29T03:47:51;19.60;99.90
9915;DHT22;4996;48.746;9.174;2022-07-29T03:50:18;19.70;99.90
9915;DHT22;4996;48.746;9.174;2022-07-29T03:52:45;19.70;99.90
9915;DHT22;4996;48.746;9.174;2022-07-29T03:55:11;19.70;99.90
9915;DHT22;4996;48.746;9.174;2022-07-29T03:57:38;19.70;99.90
9915;DHT22;4996;48.746;9.174;2022-07-29T04:00:05;19.60;99.90
9915;DHT22;4996;48.746;9.174;2022-07-29T04:02:32;19.60;99.90
9915;DHT22;4996;48.746;9.174;2022-07-29T04:04:57;19.70;99.90
9915;DHT22;4996;48.746;9.174;2022-07-29T04:07:23;19.70;99.90
9915;DHT22;4996;48.746;9.174;2022-07-29T04:09:49;19.70;99.90
9915;DHT22;4996;48.746;9.174;2022-07-29T04:12:14;19.70;99.90
9915;DHT22;4996;48.746;9.174;2022-07-29T04:14:40;19.80;99.90
9915;DHT22;4996;48.746;9.174;2022-07-29T04:17:05;19.80;99.90
9915;DHT22;4996;48.746;9.174;2022-07-29T04:19:31;19.80;99.90
9915;DHT22;4996;48.746;9.174;2022-07-29T04:21:58;19.70;99.90
9915;DHT22;4996;48.746;9.174;2022-07-29T04:24:24;19.70;99.90
9915;DHT22;4996;48.746;9.174;2022-07-29T04:26:50;19.80;99.90
9915;DHT22;4996;48.746;9.174;2022-07-29T04:29:16;19.70;99.90
9915;DHT22;4996;48.746;9.174;2022-07-29T04:31:42;19.70;99.90
9915;DHT22;4996;48.746;9.174;2022-07-29T04:34:07;19.70;99.90
9915;DHT22;4996;48.746;9.174;2022-07-29T04:36:34;19.80;99.90
9915;DHT22;4996;48.746;9.174;2022-07-29T04:39:00;19.90;99.90
9915;DHT22;4996;48.746;9.174;2022-07-29T04:41:27;19.70;99.90
9915;DHT22;4996;48.746;9.174;2022-07-29T04:43:52;19.80;99.90
9915;DHT22;4996;48.746;9.174;2022-07-29T04:46:18;19.80;99.90
9915;DHT22;4996;48.746;9.174;2022-07-29T04:48:45;19.70;99.90
9915;DHT22;4996;48.746;9.174;2022-07-29T04:51:11;19.80;99.90
9915;DHT22;4996;48.746;9.174;2022-07-29T04:53:37;19.90;99.90
9915;DHT22;4996;48.746;9.174;2022-07-29T04:56:02;19.90;99.90
9915;DHT22;4996;48.746;9.174;2022-07-29T04:58:28;19.90;99.90
9915;DHT22;4996;48.746;9.174;2022-07-29T05:00:53;19.90;99.90
9915;DHT22;4996;48.746;9.174;2022-07-29T05:03:19;19.90;99.90
9915;DHT22;4996;48.746;9.174;2022-07-29T05:05:45;20.00;99.90
9915;DHT22;4996;48.746;9.174;2022-07-29T05:08:10;20.10;99.90
9915;DHT22;4996;48.746;9.174;2022-07-29T05:10:36;20.10;99.90
9915;DHT22;4996;48.746;9.174;2022-07-29T05:13:06;20.20;99.90
9915;DHT22;4996;48.746;9.174;2022-07-29T05:15:33;20.20;99.90
9915;DHT22;4996;48.746;9.174;2022-07-29T05:17:59;20.30;99.90
9915;DHT22;4996;48.746;9.174;2022-07-29T05:20:25;20.20;99.90
9915;DHT22;4996;48.746;9.174;2022-07-29T05:22:57;20.20;99.90
9915;DHT22;4996;48.746;9.174;2022-07-29T05:25:23;20.30;99.90
9915;DHT22;4996;48.746;9.174;2022-07-29T05:27:48;20.30;99.90
9915;DHT22;4996;48.746;9.174;2022-07-29T05:30:14;20.40;99.90
9915;DHT22;4996;48.746;9.174;2022-07-29T05:32:39;20.50;99.90
9915;DHT22;4996;48.746;9.174;2022-07-29T05:35:05;20.60;99.90
9915;DHT22;4996;48.746;9.174;2022-07-29T05:37:31;20.60;99.90
9915;DHT22;4996;48.746;9.174;2022-07-29T05:39:56;20.60;99.90
9915;DHT22;4996;48.746;9.174;2022-07-29T05:42:22;20.70;99.90
9915;DHT22;4996;48.746;9.174;2022-07-29T05:44:48;20.80;99.90
9915;DHT22;4996;48.746;9.174;2022-07-29T05:47:13;20.70;99.90
9915;DHT22;4996;48.746;9.174;2022-07-29T05:49:39;20.80;99.90
9915;DHT22;4996;48.746;9.174;2022-07-29T05:52:04;20.90;99.90
9915;DHT22;4996;48.746;9.174;2022-07-29T05:54:30;21.00;99.90
9915;DHT22;4996;48.746;9.174;2022-07-29T05:56:55;21.10;99.90
9915;DHT22;4996;48.746;9.174;2022-07-29T05:59:21;21.20;99.90
9915;DHT22;4996;48.746;9.174;2022-07-29T06:01:46;21.30;99.90
9915;DHT22;4996;48.746;9.174;2022-07-29T06:04:12;21.40;99.90
9915;DHT22;4996;48.746;9.174;2022-07-29T06:06:38;21.40;99.90
9915;DHT22;4996;48.746;9.174;2022-07-29T06:09:03;21.50;99.90
9915;DHT22;4996;48.746;9.174;2022-07-29T06:11:29;21.50;99.90
9915;DHT22;4996;48.746;9.174;2022-07-29T06:13:54;21.60;99.90
9915;DHT22;4996;48.746;9.174;2022-07-29T06:16:20;21.60;99.90
9915;DHT22;4996;48.746;9.174;2022-07-29T06:18:45;21.50;99.90
9915;DHT22;4996;48.746;9.174;2022-07-29T06:21:11;21.60;99.90
9915;DHT22;4996;48.746;9.174;2022-07-29T06:23:37;21.60;99.90
9915;DHT22;4996;48.746;9.174;2022-07-29T06:26:04;21.90;99.90
9915;DHT22;4996;48.746;9.174;2022-07-29T06:28:29;22.10;99.90
9915;DHT22;4996;48.746;9.174;2022-07-29T06:30:55;22.20;99.90
9915;DHT22;4996;48.746;9.174;2022-07-29T06:33:20;22.30;99.90
9915;DHT22;4996;48.746;9.174;2022-07-29T06:35:46;22.50;99.90
9915;DHT22;4996;48.746;9.174;2022-07-29T06:38:13;22.50;99.90
9915;DHT22;4996;48.746;9.174;2022-07-29T06:40:45;22.60;99.90
9915;DHT22;4996;48.746;9.174;2022-07-29T06:43:33;22.90;99.90
9915;DHT22;4996;48.746;9.174;2022-07-29T06:46:04;23.10;99.90
9915;DHT22;4996;48.746;9.174;2022-07-29T06:48:30;23.30;99.90
9915;DHT22;4996;48.746;9.174;2022-07-29T06:50:56;23.20;99.90
9915;DHT22;4996;48.746;9.174;2022-07-29T06:53:22;23.10;99.90
9915;DHT22;4996;48.746;9.174;2022-07-29T06:55:48;23.10;99.90
9915;DHT22;4996;48.746;9.174;2022-07-29T06:58:13;23.20;99.90
9915;DHT22;4996;48.746;9.174;2022-07-29T07:00:41;23.20;99.90
9915;DHT22;4996;48.746;9.174;2022-07-29T07:03:07;23.30;99.90
9915;DHT22;4996;48.746;9.174;2022-07-29T07:05:33;23.00;99.90
9915;DHT22;4996;48.746;9.174;2022-07-29T07:07:58;23.00;99.90
9915;DHT22;4996;48.746;9.174;2022-07-29T07:10:24;23.20;99.90
9915;DHT22;4996;48.746;9.174;2022-07-29T07:12:49;23.30;99.90
9915;DHT22;4996;48.746;9.174;2022-07-29T07:15:15;23.50;99.90
9915;DHT22;4996;48.746;9.174;2022-07-29T07:17:40;23.50;99.90
9915;DHT22;4996;48.746;9.174;2022-07-29T07:20:06;23.60;99.90
9915;DHT22;4996;48.746;9.174;2022-07-29T07:22:32;23.80;99.90
9915;DHT22;4996;48.746;9.174;2022-07-29T07:24:58;23.90;99.90
9915;DHT22;4996;48.746;9.174;2022-07-29T07:27:23;24.00;99.90
9915;DHT22;4996;48.746;9.174;2022-07-29T07:29:49;23.90;99.90
9915;DHT22;4996;48.746;9.174;2022-07-29T07:32:14;24.00;99.90
9915;DHT22;4996;48.746;9.174;2022-07-29T07:34:42;24.30;99.90
9915;DHT22;4996;48.746;9.174;2022-07-29T07:37:08;24.40;99.90
9915;DHT22;4996;48.746;9.174;2022-07-29T07:39:34;24.10;99.90
9915;DHT22;4996;48.746;9.174;2022-07-29T07:41:59;24.20;99.90
9915;DHT22;4996;48.746;9.174;2022-07-29T07:44:25;24.30;99.90
9915;DHT22;4996;48.746;9.174;2022-07-29T07:46:51;24.40;99.90
9915;DHT22;4996;48.746;9.174;2022-07-29T07:49:16;24.60;99.90
9915;DHT22;4996;48.746;9.174;2022-07-29T07:51:42;24.50;99.90
9915;DHT22;4996;48.746;9.174;2022-07-29T07:54:07;24.70;99.90
9915;DHT22;4996;48.746;9.174;2022-07-29T07:56:33;25.00;99.90
9915;DHT22;4996;48.746;9.174;2022-07-29T07:58:58;25.10;99.90
9915;DHT22;4996;48.746;9.174;2022-07-29T08:01:24;25.20;99.90
9915;DHT22;4996;48.746;9.174;2022-07-29T08:03:49;25.30;99.90
9915;DHT22;4996;48.746;9.174;2022-07-29T08:06:15;25.40;99.90
9915;DHT22;4996;48.746;9.174;2022-07-29T08:08:41;25.60;99.90
9915;DHT22;4996;48.746;9.174;2022-07-29T08:11:06;25.80;99.90
9915;DHT22;4996;48.746;9.174;2022-07-29T08:13:32;25.70;99.90
9915;DHT22;4996;48.746;9.174;2022-07-29T08:15:58;25.90;99.90
9915;DHT22;4996;48.746;9.174;2022-07-29T08:18:29;25.90;99.90
9915;DHT22;4996;48.746;9.174;2022-07-29T08:20:55;26.40;99.90
9915;DHT22;4996;48.746;9.174;2022-07-29T08:23:21;26.30;99.90
9915;DHT22;4996;48.746;9.174;2022-07-29T08:25:48;26.20;99.90
9915;DHT22;4996;48.746;9.174;2022-07-29T08:28:14;26.20;99.90
9915;DHT22;4996;48.746;9.174;2022-07-29T08:30:39;26.40;99.90
9915;DHT22;4996;48.746;9.174;2022-07-29T08:33:05;26.80;99.90
9915;DHT22;4996;48.746;9.174;2022-07-29T08:35:31;27.10;99.90
9915;DHT22;4996;48.746;9.174;2022-07-29T08:37:56;27.70;99.90
9915;DHT22;4996;48.746;9.174;2022-07-29T08:40:23;27.90;99.90
9915;DHT22;4996;48.746;9.174;2022-07-29T08:42:49;27.80;99.90
9915;DHT22;4996;48.746;9.174;2022-07-29T08:45:15;28.00;99.90
9915;DHT22;4996;48.746;9.174;2022-07-29T08:47:41;28.30;99.90
9915;DHT22;4996;48.746;9.174;2022-07-29T08:50:08;28.10;99.90
9915;DHT22;4996;48.746;9.174;2022-07-29T08:52:36;28.20;99.90
9915;DHT22;4996;48.746;9.174;2022-07-29T08:55:03;28.10;99.90
9915;DHT22;4996;48.746;9.174;2022-07-29T08:57:29;28.20;99.90
9915;DHT22;4996;48.746;9.174;2022-07-29T08:59:57;28.50;99.90
9915;DHT22;4996;48.746;9.174;2022-07-29T09:02:27;28.90;99.90
9915;DHT22;4996;48.746;9.174;2022-07-29T09:04:54;29.20;99.90
9915;DHT22;4996;48.746;9.174;2022-07-29T09:07:20;29.10;99.90
9915;DHT22;4996;48.746;9.174;2022-07-29T09:09:46;29.30;99.90
9915;DHT22;4996;48.746;9.174;2022-07-29T09:12:12;28.80;99.90
9915;DHT22;4996;48.746;9.174;2022-07-29T09:14:38;29.00;99.90
9915;DHT22;4996;48.746;9.174;2022-07-29T09:17:04;29.00;99.90
9915;DHT22;4996;48.746;9.174;2022-07-29T09:19:32;29.10;99.90
9915;DHT22;4996;48.746;9.174;2022-07-29T09:22:01;29.30;99.90
9915;DHT22;4996;48.746;9.174;2022-07-29T09:24:37;29.30;99.90
9915;DHT22;4996;48.746;9.174;2022-07-29T09:27:08;29.50;99.90
9915;DHT22;4996;48.746;9.174;2022-07-29T09:29:34;29.60;99.90
9915;DHT22;4996;48.746;9.174;2022-07-29T09:32:00;29.70;99.90
9915;DHT22;4996;48.746;9.174;2022-07-29T09:34:28;29.70;99.90
9915;DHT22;4996;48.746;9.174;2022-07-29T09:36:55;30.00;99.90
9915;DHT22;4996;48.746;9.174;2022-07-29T09:41:56;30.30;99.80
9915;DHT22;4996;48.746;9.174;2022-07-29T09:44:23;30.50;99.90
9915;DHT22;4996;48.746;9.174;2022-07-29T09:47:00;30.10;99.90
9915;DHT22;4996;48.746;9.174;2022-07-29T09:49:36;29.80;99.10
9915;DHT22;4996;48.746;9.174;2022-07-29T09:52:15;29.50;98.70
9915;DHT22;4996;48.746;9.174;2022-07-29T09:54:40;29.20;99.50
9915;DHT22;4996;48.746;9.174;2022-07-29T09:57:08;29.10;99.80
9915;DHT22;4996;48.746;9.174;2022-07-29T09:59:38;29.30;99.40
9915;DHT22;4996;48.746;9.174;2022-07-29T10:02:13;28.80;99.80
9915;DHT22;4996;48.746;9.174;2022-07-29T10:04:42;28.90;99.90
9915;DHT22;4996;48.746;9.174;2022-07-29T10:07:08;29.00;99.60
9915;DHT22;4996;48.746;9.174;2022-07-29T10:09:34;29.00;99.00
9915;DHT22;4996;48.746;9.174;2022-07-29T10:12:04;29.00;99.40
9915;DHT22;4996;48.746;9.174;2022-07-29T10:14:31;29.20;99.60
9915;DHT22;4996;48.746;9.174;2022-07-29T10:17:01;29.30;99.40
9915;DHT22;4996;48.746;9.174;2022-07-29T10:19:32;29.40;99.90
9915;DHT22;4996;48.746;9.174;2022-07-29T10:21:59;29.30;99.90
9915;DHT22;4996;48.746;9.174;2022-07-29T10:24:26;28.70;99.90
9915;DHT22;4996;48.746;9.174;2022-07-29T10:26:57;28.80;99.90
9915;DHT22;4996;48.746;9.174;2022-07-29T10:29:24;28.90;99.90
9915;DHT22;4996;48.746;9.174;2022-07-29T10:32:29;29.10;99.90
9915;DHT22;4996;48.746;9.174;2022-07-29T10:35:31;29.00;99.90
9915;DHT22;4996;48.746;9.174;2022-07-29T10:38:03;28.80;99.90
9915;DHT22;4996;48.746;9.174;2022-07-29T10:43:48;28.60;99.90
9915;DHT22;4996;48.746;9.174;2022-07-29T10:46:14;28.50;99.90
9915;DHT22;4996;48.746;9.174;2022-07-29T10:54:38;27.80;99.90
9915;DHT22;4996;48.746;9.174;2022-07-29T10:57:28;27.00;99.90
9915;DHT22;4996;48.746;9.174;2022-07-29T11:05:08;22.30;99.90
9915;DHT22;4996;48.746;9.174;2022-07-29T11:07:36;21.20;99.90
9915;DHT22;4996;48.746;9.174;2022-07-29T11:15:09;19.90;99.90
9915;DHT22;4996;48.746;9.174;2022-07-29T11:20:48;19.80;99.90
9915;DHT22;4996;48.746;9.174;2022-07-29T11:23:21;19.70;99.90
9915;DHT22;4996;48.746;9.174;2022-07-29T11:31:41;20.10;99.90
9915;DHT22;4996;48.746;9.174;2022-07-29T11:34:28;20.00;99.90
9915;DHT22;4996;48.746;9.174;2022-07-29T11:47:37;20.20;99.90
9915;DHT22;4996;48.746;9.174;2022-07-29T11:50:06;20.10;99.90
9915;DHT22;4996;48.746;9.174;2022-07-29T11:52:43;20.00;99.90
9915;DHT22;4996;48.746;9.174;2022-07-29T11:55:16;19.70;99.90
9915;DHT22;4996;48.746;9.174;2022-07-29T11:57:50;19.60;99.90
9915;DHT22;4996;48.746;9.174;2022-07-29T12:00:23;19.40;99.90
9915;DHT22;4996;48.746;9.174;2022-07-29T12:02:49;19.40;99.90
9915;DHT22;4996;48.746;9.174;2022-07-29T12:05:15;19.40;99.90
9915;DHT22;4996;48.746;9.174;2022-07-29T12:07:41;19.50;99.90
9915;DHT22;4996;48.746;9.174;2022-07-29T12:10:08;19.70;99.90
9915;DHT22;4996;48.746;9.174;2022-07-29T12:12:34;19.80;99.90
9915;DHT22;4996;48.746;9.174;2022-07-29T12:15:15;19.80;99.90
9915;DHT22;4996;48.746;9.174;2022-07-29T12:17:42;20.00;99.90
9915;DHT22;4996;48.746;9.174;2022-07-29T12:20:08;20.20;99.90
9915;DHT22;4996;48.746;9.174;2022-07-29T12:22:37;20.40;99.90
9915;DHT22;4996;48.746;9.174;2022-07-29T12:25:05;20.40;99.90
9915;DHT22;4996;48.746;9.174;2022-07-29T12:27:32;20.60;99.90
9915;DHT22;4996;48.746;9.174;2022-07-29T12:29:59;20.70;99.90
9915;DHT22;4996;48.746;9.174;2022-07-29T12:32:33;20.80;99.90
9915;DHT22;4996;48.746;9.174;2022-07-29T12:35:04;21.00;99.90
9915;DHT22;4996;48.746;9.174;2022-07-29T12:37:30;20.80;99.90
9915;DHT22;4996;48.746;9.174;2022-07-29T12:39:56;20.70;99.90
9915;DHT22;4996;48.746;9.174;2022-07-29T12:42:22;20.90;99.90
9915;DHT22;4996;48.746;9.174;2022-07-29T12:44:49;21.00;99.90
9915;DHT22;4996;48.746;9.174;2022-07-29T12:47:15;21.10;99.90
9915;DHT22;4996;48.746;9.174;2022-07-29T12:49:41;21.10;99.90
9915;DHT22;4996;48.746;9.174;2022-07-29T12:52:27;21.20;99.90
9915;DHT22;4996;48.746;9.174;2022-07-29T12:54:53;21.20;99.90
9915;DHT22;4996;48.746;9.174;2022-07-29T12:57:19;21.20;99.90
9915;DHT22;4996;48.746;9.174;2022-07-29T12:59:44;21.20;99.90
9915;DHT22;4996;48.746;9.174;2022-07-29T13:02:22;21.20;99.90
9915;DHT22;4996;48.746;9.174;2022-07-29T13:04:59;21.20;99.90
9915;DHT22;4996;48.746;9.174;2022-07-29T13:07:29;21.20;99.90
9915;DHT22;4996;48.746;9.174;2022-07-29T13:10:16;21.20;99.90
9915;DHT22;4996;48.746;9.174;2022-07-29T13:13:11;21.30;99.90
9915;DHT22;4996;48.746;9.174;2022-07-29T13:15:40;21.10;99.90
9915;DHT22;4996;48.746;9.174;2022-07-29T13:18:30;21.10;99.90
9915;DHT22;4996;48.746;9.174;2022-07-29T13:20:56;21.20;99.90
9915;DHT22;4996;48.746;9.174;2022-07-29T13:23:22;21.20;99.90
9915;DHT22;4996;48.746;9.174;2022-07-29T13:25:47;21.20;99.90
9915;DHT22;4996;48.746;9.174;2022-07-29T13:28:13;21.30;99.90
9915;DHT22;4996;48.746;9.174;2022-07-29T13:30:42;21.30;99.90
9915;DHT22;4996;48.746;9.174;2022-07-29T13:33:08;21.20;99.90
9915;DHT22;4996;48.746;9.174;2022-07-29T13:35:33;21.30;99.90
9915;DHT22;4996;48.746;9.174;2022-07-29T13:37:59;21.30;99.90
9915;DHT22;4996;48.746;9.174;2022-07-29T13:40:25;21.40;99.90
9915;DHT22;4996;48.746;9.174;2022-07-29T13:42:51;21.40;99.90
9915;DHT22;4996;48.746;9.174;2022-07-29T13:45:16;21.50;99.90
9915;DHT22;4996;48.746;9.174;2022-07-29T13:47:42;21.50;99.90
9915;DHT22;4996;48.746;9.174;2022-07-29T13:50:08;21.50;99.90
9915;DHT22;4996;48.746;9.174;2022-07-29T13:52:36;21.50;99.90
9915;DHT22;4996;48.746;9.174;2022-07-29T13:55:02;21.50;99.90
9915;DHT22;4996;48.746;9.174;2022-07-29T13:57:28;21.70;99.90
9915;DHT22;4996;48.746;9.174;2022-07-29T13:59:53;22.00;99.90
9915;DHT22;4996;48.746;9.174;2022-07-29T14:02:19;22.10;99.90
9915;DHT22;4996;48.746;9.174;2022-07-29T14:04:44;22.10;99.90
9915;DHT22;4996;48.746;9.174;2022-07-29T14:07:10;22.20;99.90
9915;DHT22;4996;48.746;9.174;2022-07-29T14:09:35;22.30;99.90
9915;DHT22;4996;48.746;9.174;2022-07-29T14:12:01;22.40;99.90
9915;DHT22;4996;48.746;9.174;2022-07-29T14:14:28;22.60;99.90
9915;DHT22;4996;48.746;9.174;2022-07-29T14:16:54;22.80;99.90
9915;DHT22;4996;48.746;9.174;2022-07-29T14:19:20;23.00;99.90
9915;DHT22;4996;48.746;9.174;2022-07-29T14:21:45;23.10;99.90
9915;DHT22;4996;48.746;9.174;2022-07-29T14:24:11;23.20;99.90
9915;DHT22;4996;48.746;9.174;2022-07-29T14:26:37;23.40;99.90
9915;DHT22;4996;48.746;9.174;2022-07-29T14:29:02;23.50;99.90
9915;DHT22;4996;48.746;9.174;2022-07-29T14:31:28;23.60;99.90
9915;DHT22;4996;48.746;9.174;2022-07-29T14:33:53;23.80;99.90
9915;DHT22;4996;48.746;9.174;2022-07-29T14:36:19;23.90;99.90
9915;DHT22;4996;48.746;9.174;2022-07-29T14:38:44;24.00;99.90
9915;DHT22;4996;48.746;9.174;2022-07-29T14:41:10;24.10;99.90
9915;DHT22;4996;48.746;9.174;2022-07-29T14:43:35;24.10;99.90
9915;DHT22;4996;48.746;9.174;2022-07-29T14:46:01;24.20;99.90
9915;DHT22;4996;48.746;9.174;2022-07-29T14:48:27;24.30;99.90
9915;DHT22;4996;48.746;9.174;2022-07-29T14:50:52;24.30;99.90
9915;DHT22;4996;48.746;9.174;2022-07-29T14:53:19;24.40;99.90
9915;DHT22;4996;48.746;9.174;2022-07-29T14:55:45;24.40;99.90
9915;DHT22;4996;48.746;9.174;2022-07-29T14:58:10;24.30;99.90
9915;DHT22;4996;48.746;9.174;2022-07-29T15:00:36;24.30;99.90
9915;DHT22;4996;48.746;9.174;2022-07-29T15:03:03;24.50;99.90
9915;DHT22;4996;48.746;9.174;2022-07-29T15:05:32;24.30;99.90
9915;DHT22;4996;48.746;9.174;2022-07-29T15:07:59;24.40;99.90
9915;DHT22;4996;48.746;9.174;2022-07-29T15:10:25;24.50;99.90
9915;DHT22;4996;48.746;9.174;2022-07-29T15:12:52;24.50;99.90
9915;DHT22;4996;48.746;9.174;2022-07-29T15:15:18;24.30;99.90
9915;DHT22;4996;48.746;9.174;2022-07-29T15:17:43;24.30;99.90
9915;DHT22;4996;48.746;9.174;2022-07-29T15:20:10;24.30;99.90
9915;DHT22;4996;48.746;9.174;2022-07-29T15:22:37;24.30;99.90
9915;DHT22;4996;48.746;9.174;2022-07-29T15:25:04;24.30;99.90
9915;DHT22;4996;48.746;9.174;2022-07-29T15:27:29;24.40;99.90
9915;DHT22;4996;48.746;9.174;2022-07-29T15:29:55;24.40;99.90
9915;DHT22;4996;48.746;9.174;2022-07-29T15:32:20;24.40;99.90
9915;DHT22;4996;48.746;9.174;2022-07-29T15:34:46;24.30;99.90
9915;DHT22;4996;48.746;9.174;2022-07-29T15:37:12;24.30;99.90
9915;DHT22;4996;48.746;9.174;2022-07-29T15:39:38;24.30;99.90
9915;DHT22;4996;48.746;9.174;2022-07-29T15:42:03;24.30;99.90
9915;DHT22;4996;48.746;9.174;2022-07-29T15:44:29;24.40;99.90
9915;DHT22;4996;48.746;9.174;2022-07-29T15:46:54;24.50;99.90
9915;DHT22;4996;48.746;9.174;2022-07-29T15:49:37;24.60;99.90
9915;DHT22;4996;48.746;9.174;2022-07-29T15:52:08;24.60;99.90
9915;DHT22;4996;48.746;9.174;2022-07-29T15:54:36;24.60;99.90
9915;DHT22;4996;48.746;9.174;2022-07-29T15:57:03;24.60;99.90
9915;DHT22;4996;48.746;9.174;2022-07-29T15:59:29;24.50;99.90
9915;DHT22;4996;48.746;9.174;2022-07-29T16:01:55;24.50;99.90
9915;DHT22;4996;48.746;9.174;2022-07-29T16:04:20;24.60;99.90
9915;DHT22;4996;48.746;9.174;2022-07-29T16:06:47;24.40;99.90
9915;DHT22;4996;48.746;9.174;2022-07-29T16:09:14;24.40;99.90
9915;DHT22;4996;48.746;9.174;2022-07-29T16:11:40;24.30;99.90
9915;DHT22;4996;48.746;9.174;2022-07-29T16:14:06;24.40;99.90
9915;DHT22;4996;48.746;9.174;2022-07-29T16:16:32;24.30;99.90
9915;DHT22;4996;48.746;9.174;2022-07-29T16:18:57;24.30;99.90
9915;DHT22;4996;48.746;9.174;2022-07-29T16:21:23;24.30;99.90
9915;DHT22;4996;48.746;9.174;2022-07-29T16:23:49;24.20;99.90
9915;DHT22;4996;48.746;9.174;2022-07-29T16:26:14;24.30;99.90
9915;DHT22;4996;48.746;9.174;2022-07-29T16:28:40;24.30;99.90
9915;DHT22;4996;48.746;9.174;2022-07-29T16:31:06;24.30;99.90
9915;DHT22;4996;48.746;9.174;2022-07-29T16:33:31;24.30;99.90
9915;DHT22;4996;48.746;9.174;2022-07-29T16:35:57;24.30;99.90
9915;DHT22;4996;48.746;9.174;2022-07-29T16:38:22;24.30;99.90
9915;DHT22;4996;48.746;9.174;2022-07-29T16:40:48;24.30;99.90
9915;DHT22;4996;48.746;9.174;2022-07-29T16:43:13;24.30;99.90
9915;DHT22;4996;48.746;9.174;2022-07-29T16:45:39;24.30;99.90
9915;DHT22;4996;48.746;9.174;2022-07-29T16:48:05;24.30;99.90
9915;DHT22;4996;48.746;9.174;2022-07-29T16:50:30;24.10;99.90
9915;DHT22;4996;48.746;9.174;2022-07-29T16:52:57;24.10;99.90
9915;DHT22;4996;48.746;9.174;2022-07-29T16:55:23;24.10;99.90
9915;DHT22;4996;48.746;9.174;2022-07-29T16:57:49;24.00;99.90